Saturday, November 17, 2018, 6:44 AM GMT
Back to Local

CWXC, Onatchiway, Que.

Location: , , Canada Lat: 48.883
Local Time: 6:44 AM GMT ( 6:44 GMT) Lon: -71.033
Time Zone: GMT Elev: 997 ft

Show me the last for .
Show Coded

Time T Td Feel RH Dir Speed Gust Alt SLP Vis Weather Sky Remarks
2018-11-17 06:00 18 18 - 100 150° 2 - - 29.60 0 None
2018-11-17 05:00 18 18 - 100 - Calm - - 29.59 0 1-hr Precip Total: 0.01"
2018-11-17 04:00 18 18 - 99 - Calm - - 29.59 0 1-hr Precip Total: 0.01"
2018-11-17 03:00 18 18 - 99 - Calm - - 29.60 0 1-hr Precip Total: 0.01"
2018-11-17 02:00 18 17 - 93 - Calm - - 29.60 0 None
2018-11-17 01:00 19 16 - 86 10° 1 - - 29.61 0 None
2018-11-17 00:00 20 15 - 82 130° 1 - - 29.62 0 None
2018-11-16 23:00 20 19 - 95 250° 1 - - 29.65 0 1-hr Precip Total: 0.01"
2018-11-16 22:00 20 19 13 95 350° 6 - - 29.66 0 None
2018-11-16 21:00 20 19 14 93 350° 5 - - 29.69 0 1-hr Precip Total: 0.01"
2018-11-16 20:00 21 18 - 88 320° 1 - - 29.71 0 1-hr Precip Total: 0.01"
2018-11-16 19:00 22 18 - 84 210° 2 - - 29.74 0 None
2018-11-16 18:00 23 19 18 82 170° 3 - - 29.75 0 None
2018-11-16 17:00 23 17 - 74 330° 1 - - 29.77 0 None
2018-11-16 16:00 23 15 - 70 - Calm - - 29.81 0 None
2018-11-16 15:00 24 15 - 68 120° 1 - - 29.85 0 None
2018-11-16 14:00 20 15 - 81 40° 1 - - 29.88 0 None
2018-11-16 13:00 17 15 - 90 60° 1 - - 29.91 0 None
2018-11-16 12:00 15 13 - 93 150° 1 - - 29.95 0 None
2018-11-16 11:00 14 13 - 93 360° 1 - - 29.97 0 None
2018-11-16 10:00 14 12 - 93 80° 1 - - 30.00 0 None
2018-11-16 09:00 13 11 - 93 90° 1 - - 30.03 0 None
2018-11-16 08:00 13 11 - 93 - Calm - - 30.07 0 None
2018-11-16 07:00 13 10 - 85 100° 1 - - 30.09 0 None

Support USWX by starting your Amazon purchase here.